Time;durP1;ratioP1;P1;durP2;ratioP2;P2;SDS_P1;SDS_P2;PMS_P1;PMS_P2;Temp;Humidity;BMP_temperature;BMP_pressure;BME280_temperature;BME280_humidity;BME280_pressure;Samples;Min_cycle;Max_cycle;Signal;HPM_P1;HPM_P2
2022/04/01 00:01:31;;;;;;;19.30;6.00;;;;;;;;;;10471392;27;20058;-58
2022/04/01 00:06:29;;;;;;;21.35;6.13;;;;;;;;;;10471148;27;20069;-59
2022/04/01 00:11:27;;;;;;;24.98;6.88;;;;;;;;;;10475343;27;20043;-58
2022/04/01 00:16:26;;;;;;;25.88;7.55;;;;;;;;;;10484718;27;20038;-59
2022/04/01 00:21:26;;;;;;;21.70;7.10;;;;;;;;;;10479402;27;20032;-57
2022/04/01 00:26:24;;;;;;;28.98;7.40;;;;;;;;;;10468744;27;20105;-58
2022/04/01 00:31:22;;;;;;;21.95;8.35;;;;;;;;;;10473875;27;20058;-58
2022/04/01 00:36:21;;;;;;;33.17;7.35;;;;;;;;;;10464973;27;20054;-58
2022/04/01 00:41:20;;;;;;;25.30;7.15;;;;;;;;;;10463666;27;20051;-58
2022/04/01 00:46:19;;;;;;;28.60;6.53;;;;;;;;;;10459398;27;20059;-56
2022/04/01 00:51:19;;;;;;;22.52;6.40;;;;;;;;;;10469380;27;20059;-59
2022/04/01 00:56:17;;;;;;;22.55;8.27;;;;;;;;;;10468596;27;20120;-59
2022/04/01 01:01:17;;;;;;;23.90;7.22;;;;;;;;;;10468766;27;20514;-59
2022/04/01 01:06:16;;;;;;;23.42;6.82;;;;;;;;;;10467555;27;20063;-59
2022/04/01 01:11:14;;;;;;;24.15;6.88;;;;;;;;;;10450200;27;20042;-59
2022/04/01 01:16:12;;;;;;;21.60;6.40;;;;;;;;;;10468404;27;20480;-58
2022/04/01 01:21:12;;;;;;;20.08;5.72;;;;;;;;;;10468116;27;20059;-58
2022/04/01 01:26:12;;;;;;;27.85;6.35;;;;;;;;;;10467119;27;20073;-58
2022/04/01 01:31:12;;;;;;;28.38;6.25;;;;;;;;;;10448817;27;20046;-58
2022/04/01 01:36:13;;;;;;;30.67;9.05;;;;;;;;;;10452992;27;20049;-59
2022/04/01 01:41:12;;;;;;;20.60;5.95;;;;;;;;;;10461611;27;20058;-59
2022/04/01 01:46:11;;;;;;;25.25;6.90;;;;;;;;;;10480234;27;20074;-59
2022/04/01 01:56:26;;;;;;;19.27;6.72;;;;;;;;;;10448387;27;20067;-58
2022/04/01 02:01:30;;;;;;;28.77;7.32;;;;;;;;;;10447508;27;20043;-58
2022/04/01 02:06:29;;;;;;;26.02;7.93;;;;;;;;;;10466298;27;20074;-58
2022/04/01 02:11:29;;;;;;;22.70;5.85;;;;;;;;;;10451618;27;20050;-58
2022/04/01 02:16:28;;;;;;;22.15;5.90;;;;;;;;;;10461169;27;20053;-59
2022/04/01 02:21:27;;;;;;;29.35;6.40;;;;;;;;;;10456846;27;20065;-59
2022/04/01 02:26:26;;;;;;;23.35;6.78;;;;;;;;;;10465786;27;20504;-58
2022/04/01 02:31:26;;;;;;;26.35;6.80;;;;;;;;;;10447738;27;20043;-58
2022/04/01 02:36:43;;;;;;;21.80;6.55;;;;;;;;;;10477988;27;20042;-59
2022/04/01 02:41:42;;;;;;;23.25;7.53;;;;;;;;;;10460643;27;20055;-59
2022/04/01 02:46:43;;;;;;;27.65;6.43;;;;;;;;;;10456009;27;20039;-58
2022/04/01 02:51:43;;;;;;;18.40;6.15;;;;;;;;;;10430446;27;20047;-58
2022/04/01 02:56:48;;;;;;;29.08;6.65;;;;;;;;;;10429117;27;20054;-58
2022/04/01 03:01:48;;;;;;;24.52;6.35;;;;;;;;;;10447943;27;20039;-58
2022/04/01 03:06:47;;;;;;;20.77;7.65;;;;;;;;;;10429407;27;20055;-58
2022/04/01 03:11:48;;;;;;;23.92;6.68;;;;;;;;;;10447585;27;20045;-59
2022/04/01 03:17:10;;;;;;;21.42;7.05;;;;;;;;;;10466519;27;20094;-58
2022/04/01 03:22:09;;;;;;;22.98;6.78;;;;;;;;;;10433714;27;20051;-59
2022/04/01 03:27:08;;;;;;;21.88;6.78;;;;;;;;;;10454440;27;20101;-58
2022/04/01 03:32:07;;;;;;;24.25;7.05;;;;;;;;;;10470991;27;20039;-58
2022/04/01 03:37:08;;;;;;;25.85;7.00;;;;;;;;;;10453421;27;20083;-58
2022/04/01 03:42:08;;;;;;;29.00;8.10;;;;;;;;;;10448975;27;20074;-59
2022/04/01 03:47:10;;;;;;;23.25;6.25;;;;;;;;;;10455399;27;20090;-59
2022/04/01 03:52:11;;;;;;;24.75;5.68;;;;;;;;;;10435404;27;20530;-59
2022/04/01 03:57:09;;;;;;;29.15;7.68;;;;;;;;;;10454356;27;20043;-59
2022/04/01 04:02:44;;;;;;;23.35;7.03;;;;;;;;;;10370405;27;20086;-59
2022/04/01 04:07:48;;;;;;;23.80;7.53;;;;;;;;;;10447487;27;20539;-59
2022/04/01 04:12:51;;;;;;;25.23;8.70;;;;;;;;;;10451962;27;20509;-58
2022/04/01 04:17:51;;;;;;;32.35;7.68;;;;;;;;;;10445715;27;20043;-59
2022/04/01 04:22:55;;;;;;;28.75;9.05;;;;;;;;;;10453119;27;20055;-57
2022/04/01 04:27:56;;;;;;;39.08;10.57;;;;;;;;;;10443313;27;20090;-58
2022/04/01 04:33:02;;;;;;;37.47;9.85;;;;;;;;;;10428881;27;20070;-59
2022/04/01 04:38:03;;;;;;;35.37;9.00;;;;;;;;;;10450132;27;20070;-59
2022/04/01 04:43:02;;;;;;;35.05;8.95;;;;;;;;;;10432018;27;20420;-59
2022/04/01 04:48:01;;;;;;;30.35;9.10;;;;;;;;;;10440292;27;20073;-59
2022/04/01 04:52:59;;;;;;;48.53;11.25;;;;;;;;;;10446807;27;20058;-58
2022/04/01 04:57:59;;;;;;;54.17;10.45;;;;;;;;;;10419933;27;20079;-58
2022/04/01 05:03:12;;;;;;;39.88;9.88;;;;;;;;;;10421017;27;20058;-58
2022/04/01 05:08:14;;;;;;;46.35;9.43;;;;;;;;;;10437649;27;20508;-58
2022/04/01 05:13:41;;;;;;;46.50;11.02;;;;;;;;;;10452539;27;20448;-57
2022/04/01 05:18:47;;;;;;;51.95;11.27;;;;;;;;;;10445282;27;20046;-56
2022/04/01 05:23:50;;;;;;;50.65;11.25;;;;;;;;;;10451943;27;20085;-52
2022/04/01 05:28:52;;;;;;;53.83;11.95;;;;;;;;;;10452383;27;20069;-58
2022/04/01 05:33:58;;;;;;;56.03;13.95;;;;;;;;;;10451461;27;20050;-57
2022/04/01 05:38:58;;;;;;;39.25;12.35;;;;;;;;;;10451759;27;20478;-58
2022/04/01 05:43:58;;;;;;;51.97;13.82;;;;;;;;;;10470086;27;20038;-57
2022/04/01 05:49:01;;;;;;;44.72;11.82;;;;;;;;;;10452632;27;20055;-58
2022/04/01 05:54:02;;;;;;;46.63;11.30;;;;;;;;;;10451586;27;20050;-60
2022/04/01 05:59:03;;;;;;;49.85;11.93;;;;;;;;;;10450838;27;20047;-57
2022/04/01 06:04:14;;;;;;;52.72;11.75;;;;;;;;;;10453444;27;20052;-58
2022/04/01 06:09:19;;;;;;;46.45;11.63;;;;;;;;;;10446138;27;20518;-60
2022/04/01 06:14:44;;;;;;;57.40;11.40;;;;;;;;;;10470866;27;20070;-57
2022/04/01 06:20:07;;;;;;;40.45;10.65;;;;;;;;;;10468140;27;20078;-59
2022/04/01 06:25:11;;;;;;;41.10;11.82;;;;;;;;;;10444110;27;20085;-58
2022/04/01 06:30:15;;;;;;;61.95;11.73;;;;;;;;;;10441032;27;20074;-57
2022/04/01 06:35:19;;;;;;;38.78;9.73;;;;;;;;;;10458662;27;20076;-58
2022/04/01 06:40:29;;;;;;;53.47;12.32;;;;;;;;;;10477314;27;20364;-58
2022/04/01 06:45:28;;;;;;;40.90;10.70;;;;;;;;;;10452465;27;20078;-58
2022/04/01 06:50:49;;;;;;;51.55;12.07;;;;;;;;;;10470011;27;20074;-58
2022/04/01 06:56:08;;;;;;;60.47;11.77;;;;;;;;;;10452217;27;20071;-59
2022/04/01 07:01:08;;;;;;;54.83;10.93;;;;;;;;;;10460628;27;20386;-58
2022/04/01 07:06:07;;;;;;;49.25;12.38;;;;;;;;;;10449364;27;20067;-56
2022/04/01 07:11:05;;;;;;;48.38;11.27;;;;;;;;;;10444065;27;20074;-59
2022/04/01 07:16:06;;;;;;;41.55;12.15;;;;;;;;;;10477718;27;20512;-59
2022/04/01 07:21:08;;;;;;;55.05;12.82;;;;;;;;;;10452787;27;20062;-59
2022/04/01 07:26:06;;;;;;;55.15;12.82;;;;;;;;;;10456854;27;20084;-58
2022/04/01 07:32:29;;;;;;;40.03;11.90;;;;;;;;;;10475794;27;20530;-58
2022/04/01 07:36:34;;;;;;;53.35;12.98;;;;;;;;;;10451533;27;20069;-59
2022/04/01 07:41:35;;;;;;;45.58;12.70;;;;;;;;;;10446244;27;20081;-57
2022/04/01 07:46:33;;;;;;;38.90;10.70;;;;;;;;;;10477393;27;20070;-58
2022/04/01 07:51:33;;;;;;;44.33;11.85;;;;;;;;;;10471127;27;20358;-56
2022/04/01 07:56:31;;;;;;;70.95;13.95;;;;;;;;;;10477106;27;20502;-58
2022/04/01 08:01:29;;;;;;;43.65;10.27;;;;;;;;;;10471203;27;20057;-59
2022/04/01 08:06:28;;;;;;;56.45;12.57;;;;;;;;;;10468069;27;20070;-58
2022/04/01 08:11:28;;;;;;;56.15;13.48;;;;;;;;;;10463065;27;20069;-59
2022/04/01 08:16:26;;;;;;;44.17;11.93;;;;;;;;;;10470699;27;20109;-62
2022/04/01 08:21:25;;;;;;;53.72;12.85;;;;;;;;;;10445815;27;20097;-61
2022/04/01 08:26:24;;;;;;;44.60;12.02;;;;;;;;;;10451707;27;20457;-62
2022/04/01 08:31:24;;;;;;;45.25;11.55;;;;;;;;;;10473736;27;20067;-63
2022/04/01 08:36:24;;;;;;;51.38;12.15;;;;;;;;;;10440282;27;20077;-61
2022/04/01 08:41:23;;;;;;;43.25;13.70;;;;;;;;;;10448130;27;20064;-62
2022/04/01 08:46:22;;;;;;;59.97;14.23;;;;;;;;;;10469321;27;20059;-63
2022/04/01 08:51:22;;;;;;;53.28;13.20;;;;;;;;;;10468571;27;20077;-63
2022/04/01 08:56:21;;;;;;;48.72;12.50;;;;;;;;;;10469114;27;20047;-62
2022/04/01 09:01:19;;;;;;;50.53;11.95;;;;;;;;;;10452006;27;20065;-62
2022/04/01 09:06:19;;;;;;;53.28;12.38;;;;;;;;;;10463766;27;20074;-62
2022/04/01 09:11:19;;;;;;;50.65;12.25;;;;;;;;;;10465595;27;20051;-62
2022/04/01 09:16:24;;;;;;;45.65;11.65;;;;;;;;;;10465278;27;20071;-63
2022/04/01 09:21:26;;;;;;;46.03;13.40;;;;;;;;;;10464032;27;20096;-61
2022/04/01 09:26:31;;;;;;;57.17;13.98;;;;;;;;;;10463966;27;20065;-61
2022/04/01 09:31:33;;;;;;;61.72;13.65;;;;;;;;;;10466137;27;20061;-62
2022/04/01 09:36:38;;;;;;;48.78;13.15;;;;;;;;;;10467588;27;20074;-62
2022/04/01 09:41:41;;;;;;;58.70;12.90;;;;;;;;;;10467639;27;20071;-62
2022/04/01 09:46:59;;;;;;;47.15;13.05;;;;;;;;;;10437712;27;20075;-62
2022/04/01 09:51:58;;;;;;;51.83;13.00;;;;;;;;;;10437041;27;20050;-62
2022/04/01 09:56:58;;;;;;;49.60;11.88;;;;;;;;;;10443401;27;20050;-62
2022/04/01 10:01:58;;;;;;;51.58;14.00;;;;;;;;;;10467690;27;20074;-62
2022/04/01 10:06:56;;;;;;;54.22;11.80;;;;;;;;;;10466916;27;20075;-62
2022/04/01 10:11:56;;;;;;;51.80;12.40;;;;;;;;;;10467924;27;20082;-62
2022/04/01 10:16:56;;;;;;;50.35;11.77;;;;;;;;;;10467075;27;20495;-62
2022/04/01 10:21:55;;;;;;;53.15;13.55;;;;;;;;;;10467249;27;20517;-62
2022/04/01 10:27:06;;;;;;;59.45;14.73;;;;;;;;;;10469572;27;20074;-61
2022/04/01 10:32:25;;;;;;;45.75;13.30;;;;;;;;;;10475158;27;20105;-61
2022/04/01 10:37:25;;;;;;;57.53;13.70;;;;;;;;;;10475103;27;20459;-62
2022/04/01 10:42:27;;;;;;;50.83;12.35;;;;;;;;;;10473964;27;20086;-61
2022/04/01 10:51:36;;;;;;;59.67;11.75;;;;;;;;;;10475448;27;20507;-61
2022/04/01 10:53:19;;;;;;;57.70;13.73;;;;;;;;;;10453878;27;20078;-62
2022/04/01 10:58:22;;;;;;;47.15;12.48;;;;;;;;;;10473660;27;20082;-62
2022/04/01 11:03:25;;;;;;;47.38;12.38;;;;;;;;;;10473851;27;20484;-62
2022/04/01 11:08:24;;;;;;;45.10;10.80;;;;;;;;;;10472621;27;20576;-62
2022/04/01 11:13:29;;;;;;;50.85;12.63;;;;;;;;;;10472196;27;20082;-62
2022/04/01 11:18:28;;;;;;;41.08;12.00;;;;;;;;;;10471500;27;20081;-62
2022/04/01 11:23:26;;;;;;;46.65;11.50;;;;;;;;;;10473206;27;20042;-62
2022/04/01 11:28:39;;;;;;;54.80;12.73;;;;;;;;;;10470595;27;20499;-62
2022/04/01 11:33:37;;;;;;;63.63;13.13;;;;;;;;;;10469656;27;20560;-62
2022/04/01 11:38:36;;;;;;;51.80;12.10;;;;;;;;;;10452742;27;20058;-62
2022/04/01 11:43:35;;;;;;;42.42;12.50;;;;;;;;;;10471615;27;20059;-63
2022/04/01 11:48:34;;;;;;;50.00;13.70;;;;;;;;;;10471184;27;20817;-62
2022/04/01 11:53:35;;;;;;;46.15;12.27;;;;;;;;;;10471284;27;20520;-62
2022/04/01 11:58:36;;;;;;;52.33;12.40;;;;;;;;;;10470575;27;20082;-63
2022/04/01 12:03:35;;;;;;;45.03;12.27;;;;;;;;;;10470345;27;20082;-62
2022/04/01 12:08:46;;;;;;;44.85;13.45;;;;;;;;;;10470424;27;20086;-63
2022/04/01 12:13:50;;;;;;;50.05;11.65;;;;;;;;;;10469975;27;20091;-62
2022/04/01 12:18:49;;;;;;;55.78;11.70;;;;;;;;;;10469438;27;20175;-62
2022/04/01 12:23:50;;;;;;;40.60;10.82;;;;;;;;;;10470442;27;20143;-62
2022/04/01 12:28:50;;;;;;;43.22;10.82;;;;;;;;;;10469445;27;20515;-62
2022/04/01 12:33:49;;;;;;;41.33;11.52;;;;;;;;;;10469593;27;20401;-63
2022/04/01 12:38:59;;;;;;;42.70;10.88;;;;;;;;;;10469661;27;20456;-62
2022/04/01 12:44:02;;;;;;;48.65;12.95;;;;;;;;;;10468566;27;20468;-60
2022/04/01 12:49:01;;;;;;;45.92;11.60;;;;;;;;;;10468410;27;20077;-63
2022/04/01 12:54:00;;;;;;;50.38;10.98;;;;;;;;;;10468665;27;20039;-62
2022/04/01 12:59:03;;;;;;;45.05;11.15;;;;;;;;;;10468477;27;20443;-62
2022/04/01 13:04:02;;;;;;;44.13;10.70;;;;;;;;;;10468625;27;20050;-63
2022/04/01 13:09:03;;;;;;;37.72;10.50;;;;;;;;;;10468332;27;20070;-62
2022/04/01 13:14:03;;;;;;;56.90;11.77;;;;;;;;;;10468081;27;20584;-63
2022/04/01 13:19:16;;;;;;;39.80;11.45;;;;;;;;;;10467340;27;20039;-63
2022/04/01 13:24:19;;;;;;;43.27;11.03;;;;;;;;;;10467606;27;20070;-62
2022/04/01 13:29:19;;;;;;;41.72;10.95;;;;;;;;;;10462089;27;20090;-63
2022/04/01 13:34:17;;;;;;;62.72;15.82;;;;;;;;;;10480027;27;20058;-61
2022/04/01 13:39:15;;;;;;;47.50;12.15;;;;;;;;;;10480242;27;20047;-61
2022/04/01 13:44:14;;;;;;;70.57;13.90;;;;;;;;;;10466227;27;20050;-61
2022/04/01 13:49:13;;;;;;;63.67;12.18;;;;;;;;;;10466209;27;20514;-62
2022/04/01 13:54:12;;;;;;;51.88;14.60;;;;;;;;;;10466527;27;20082;-62
2022/04/01 13:59:10;;;;;;;55.45;16.65;;;;;;;;;;10448126;27;20067;-62
2022/04/01 14:04:08;;;;;;;61.25;16.10;;;;;;;;;;10465804;27;20088;-62
2022/04/01 14:09:09;;;;;;;47.15;12.88;;;;;;;;;;10466269;27;20067;-62
2022/04/01 14:14:27;;;;;;;39.83;12.73;;;;;;;;;;10466186;27;20066;-62
2022/04/01 14:19:25;;;;;;;41.67;13.32;;;;;;;;;;10466195;27;20503;-61
2022/04/01 14:24:26;;;;;;;52.88;14.65;;;;;;;;;;10479172;27;20076;-62
2022/04/01 14:34:41;;;;;;;56.85;16.55;;;;;;;;;;10465204;27;20070;-62
2022/04/01 14:39:41;;;;;;;55.15;13.30;;;;;;;;;;10465486;27;20055;-61
2022/04/01 14:44:39;;;;;;;56.22;20.48;;;;;;;;;;10478776;27;20085;-61
2022/04/01 14:49:38;;;;;;;46.17;14.00;;;;;;;;;;10478664;27;20086;-62
2022/04/01 14:54:36;;;;;;;46.22;12.98;;;;;;;;;;10466261;27;20335;-62
2022/04/01 14:59:36;;;;;;;34.08;9.27;;;;;;;;;;10479022;27;20046;-61
2022/04/01 15:04:35;;;;;;;33.30;9.38;;;;;;;;;;10478955;27;20053;-61
2022/04/01 15:09:34;;;;;;;42.25;9.80;;;;;;;;;;10478057;27;20459;-62
2022/04/01 15:14:32;;;;;;;22.88;7.32;;;;;;;;;;10483168;27;20043;-62
2022/04/01 15:19:33;;;;;;;31.55;8.93;;;;;;;;;;10472660;27;20046;-63
2022/04/01 15:24:31;;;;;;;46.38;17.65;;;;;;;;;;10485440;27;20047;-63
2022/04/01 15:29:30;;;;;;;38.90;8.73;;;;;;;;;;10486027;27;20552;-62
2022/04/01 15:34:28;;;;;;;45.72;9.35;;;;;;;;;;10468182;27;20081;-62
2022/04/01 15:39:29;;;;;;;22.00;6.30;;;;;;;;;;10484339;27;20113;-62
2022/04/01 15:44:31;;;;;;;34.45;10.75;;;;;;;;;;10453978;27;20458;-62
2022/04/01 15:49:30;;;;;;;19.65;8.32;;;;;;;;;;10462541;27;20085;-62
2022/04/01 15:54:35;;;;;;;23.40;6.53;;;;;;;;;;10484822;27;20051;-61
2022/04/01 15:59:34;;;;;;;28.42;9.07;;;;;;;;;;10483719;27;20055;-61
2022/04/01 16:04:35;;;;;;;28.15;11.02;;;;;;;;;;10483739;27;20039;-61
2022/04/01 16:09:36;;;;;;;30.38;10.52;;;;;;;;;;10483189;27;20093;-61
2022/04/01 16:14:34;;;;;;;23.67;8.73;;;;;;;;;;10483844;27;20495;-62
2022/04/01 16:19:38;;;;;;;38.92;11.63;;;;;;;;;;10482892;27;20534;-62
2022/04/01 16:24:38;;;;;;;33.03;13.00;;;;;;;;;;10482624;27;20514;-62
2022/04/01 16:29:37;;;;;;;22.20;6.75;;;;;;;;;;10483280;27;20066;-61
2022/04/01 16:34:36;;;;;;;33.72;9.00;;;;;;;;;;10469814;27;20055;-62
2022/04/01 16:39:34;;;;;;;32.03;9.85;;;;;;;;;;10482566;27;20100;-62
2022/04/01 16:44:34;;;;;;;32.92;11.93;;;;;;;;;;10482874;27;20039;-62
2022/04/01 16:49:32;;;;;;;38.92;11.00;;;;;;;;;;10468371;27;20070;-62
2022/04/01 16:54:30;;;;;;;36.75;11.95;;;;;;;;;;10467857;27;20546;-63
